createdAt,value
2022-08-16T00:00:48.978Z,6.07
2022-08-16T00:05:57.842Z,5.82
2022-08-16T00:11:05.847Z,6.25
2022-08-16T00:17:01.261Z,6.88
2022-08-16T00:21:36.689Z,6.13
2022-08-16T00:26:45.530Z,6.13
2022-08-16T00:32:00.747Z,7.07
2022-08-16T00:37:10.561Z,7.97
2022-08-16T00:42:29.619Z,6.78
2022-08-16T00:47:35.987Z,6.80
2022-08-16T00:52:45.883Z,7.65
2022-08-16T00:58:00.743Z,7.95
2022-08-16T01:03:12.622Z,7.95
2022-08-16T01:08:35.377Z,8.30
2022-08-16T01:13:44.886Z,9.05
2022-08-16T01:18:55.458Z,9.55
2022-08-16T01:24:52.921Z,7.93
2022-08-16T01:29:57.912Z,7.88
2022-08-16T01:35:05.180Z,6.70
2022-08-16T01:40:15.819Z,6.38
2022-08-16T01:50:42.221Z,6.13
2022-08-16T01:55:54.370Z,6.65
2022-08-16T02:00:59.463Z,7.72
2022-08-16T02:06:04.503Z,6.45
2022-08-16T02:11:17.642Z,6.00
2022-08-16T02:16:22.975Z,6.75
2022-08-16T02:21:31.569Z,6.75
2022-08-16T02:26:39.503Z,6.55
2022-08-16T02:32:03.737Z,6.53
2022-08-16T02:37:10.489Z,6.75
2022-08-16T02:42:19.544Z,6.00
2022-08-16T02:47:24.897Z,6.30
2022-08-16T02:52:30.762Z,6.43
2022-08-16T02:57:42.435Z,6.60
2022-08-16T03:03:01.604Z,6.53
2022-08-16T03:13:40.442Z,7.45
2022-08-16T03:18:45.747Z,7.65
2022-08-16T03:23:51.457Z,7.13
2022-08-16T03:28:59.206Z,6.57
2022-08-16T03:34:04.734Z,7.22
2022-08-16T03:39:14.904Z,6.50
2022-08-16T03:44:44.809Z,8.10
2022-08-16T03:49:53.754Z,6.70
2022-08-16T03:55:00.324Z,6.97
2022-08-16T04:00:20.555Z,6.38
2022-08-16T04:05:46.707Z,6.72
2022-08-16T04:10:52.431Z,5.95
2022-08-16T04:16:02.410Z,6.82
2022-08-16T04:21:12.226Z,6.93
2022-08-16T04:26:35.118Z,6.60
2022-08-16T04:31:43.937Z,6.68
2022-08-16T04:36:49.079Z,6.95
2022-08-16T04:41:57.095Z,6.85
2022-08-16T04:47:21.486Z,6.30
2022-08-16T04:52:35.245Z,6.88
2022-08-16T04:57:41.646Z,6.32
2022-08-16T05:02:55.704Z,6.93
2022-08-16T05:08:01.399Z,6.28
2022-08-16T05:13:41.112Z,5.72
2022-08-16T05:18:50.305Z,6.22
2022-08-16T05:23:58.578Z,5.55
2022-08-16T05:29:07.039Z,5.20
2022-08-16T05:34:22.286Z,6.30
2022-08-16T05:39:28.534Z,5.80
2022-08-16T05:44:33.735Z,6.57
2022-08-16T05:49:42.181Z,6.63
2022-08-16T05:54:58.469Z,6.22
2022-08-16T06:00:09.866Z,5.50
2022-08-16T06:05:17.962Z,5.38
2022-08-16T06:10:32.378Z,6.40
2022-08-16T06:15:38.387Z,7.22
2022-08-16T06:20:55.420Z,6.75
2022-08-16T06:26:01.113Z,5.93
2022-08-16T06:31:09.899Z,5.88
2022-08-16T06:36:21.022Z,5.25
2022-08-16T06:41:27.644Z,4.65
2022-08-16T06:46:35.380Z,3.92
2022-08-16T06:51:48.169Z,4.22
2022-08-16T06:56:54.207Z,5.47
2022-08-16T07:02:00.357Z,5.57
2022-08-16T07:07:09.708Z,4.28
2022-08-16T07:12:19.629Z,4.55
2022-08-16T07:17:25.591Z,4.87
2022-08-16T07:22:39.160Z,4.70
2022-08-16T07:27:45.317Z,3.70
2022-08-16T07:32:52.572Z,3.90
2022-08-16T07:38:00.759Z,4.47
2022-08-16T07:48:11.501Z,4.15
2022-08-16T07:53:20.260Z,3.78
2022-08-16T07:58:33.880Z,3.17
2022-08-16T08:03:43.598Z,4.32
2022-08-16T08:08:56.927Z,3.53
2022-08-16T08:14:06.877Z,3.78
2022-08-16T08:19:13.350Z,4.65
2022-08-16T08:24:21.043Z,3.58
2022-08-16T08:29:37.605Z,3.70
2022-08-16T08:34:43.529Z,3.53
2022-08-16T08:39:55.671Z,3.70
2022-08-16T08:45:00.719Z,2.90
2022-08-16T08:50:06.970Z,3.47
2022-08-16T08:55:16.762Z,3.47
2022-08-16T09:00:26.849Z,3.40
2022-08-16T09:05:35.985Z,3.00
2022-08-16T09:10:45.104Z,3.05
2022-08-16T09:15:50.577Z,3.70
2022-08-16T09:21:00.146Z,3.17
2022-08-16T09:26:44.882Z,3.63
2022-08-16T09:31:41.164Z,3.53
2022-08-16T09:36:46.608Z,3.55
2022-08-16T09:41:56.386Z,3.95
2022-08-16T09:47:01.456Z,3.60
2022-08-16T09:52:15.424Z,3.67
2022-08-16T09:57:23.080Z,3.45
2022-08-16T10:02:28.911Z,3.00
2022-08-16T10:07:44.261Z,3.10
2022-08-16T10:13:05.294Z,3.38
2022-08-16T10:18:56.490Z,2.90
2022-08-16T10:23:37.866Z,3.17
2022-08-16T10:28:45.695Z,3.00
2022-08-16T10:33:55.794Z,2.70
2022-08-16T10:39:00.876Z,3.47
2022-08-16T10:44:10.084Z,3.28
2022-08-16T10:49:18.168Z,3.35
2022-08-16T10:54:29.500Z,3.35
2022-08-16T10:59:50.833Z,2.85
2022-08-16T11:05:06.342Z,3.05
2022-08-16T11:10:21.241Z,3.28
2022-08-16T11:15:47.939Z,2.92
2022-08-16T11:21:01.492Z,3.63
2022-08-16T11:26:20.693Z,3.30
2022-08-16T11:31:32.991Z,3.05
2022-08-16T11:36:38.151Z,2.95
2022-08-16T11:41:43.836Z,3.58
2022-08-16T11:46:51.574Z,3.15
2022-08-16T11:51:58.844Z,3.17
2022-08-16T11:57:04.044Z,2.75
2022-08-16T12:02:31.640Z,3.03
2022-08-16T12:07:38.163Z,3.10
2022-08-16T12:12:44.010Z,3.17
2022-08-16T12:17:54.473Z,2.97
2022-08-16T12:23:00.226Z,3.00
2022-08-16T12:28:07.128Z,3.10
2022-08-16T12:33:25.581Z,3.10
2022-08-16T12:38:41.008Z,2.92
2022-08-16T12:43:57.283Z,3.10
2022-08-16T12:49:11.596Z,3.08
2022-08-16T12:54:17.721Z,3.25
2022-08-16T12:59:24.037Z,3.08
2022-08-16T13:04:33.534Z,3.05
2022-08-16T13:09:48.114Z,2.95
2022-08-16T13:14:56.034Z,2.97
2022-08-16T13:20:07.571Z,2.88
2022-08-16T13:25:19.468Z,4.07
2022-08-16T13:30:35.762Z,2.42
2022-08-16T13:35:45.442Z,2.92
2022-08-16T13:40:50.533Z,3.50
2022-08-16T13:45:56.991Z,3.25
2022-08-16T13:51:05.144Z,2.90
2022-08-16T13:56:10.506Z,2.75
2022-08-16T14:01:27.793Z,2.60
2022-08-16T14:06:38.166Z,2.33
2022-08-16T14:11:45.345Z,4.57
2022-08-16T14:16:50.497Z,2.70
2022-08-16T14:22:14.674Z,2.47
2022-08-16T14:27:22.301Z,2.78
2022-08-16T14:32:33.902Z,2.38
2022-08-16T14:37:43.137Z,6.32
2022-08-16T14:42:49.490Z,4.13
2022-08-16T14:47:55.584Z,3.17
2022-08-16T14:53:09.796Z,3.15
2022-08-16T14:58:19.463Z,2.60
2022-08-16T15:03:25.744Z,2.45
2022-08-16T15:08:37.125Z,2.50
2022-08-16T15:13:45.900Z,2.50
2022-08-16T15:18:52.713Z,2.27
2022-08-16T15:24:02.867Z,2.97
2022-08-16T15:29:10.797Z,2.25
2022-08-16T15:34:22.119Z,2.55
2022-08-16T15:39:38.879Z,4.10
2022-08-16T15:50:41.857Z,3.20
2022-08-16T15:55:51.184Z,2.88
2022-08-16T16:01:48.243Z,3.00
2022-08-16T16:06:55.598Z,2.78
2022-08-16T16:12:11.977Z,2.47
2022-08-16T16:17:26.727Z,3.60
2022-08-16T16:22:34.464Z,13.38
2022-08-16T16:27:42.195Z,6.45
2022-08-16T16:32:48.022Z,3.50
2022-08-16T16:37:56.688Z,3.38
2022-08-16T16:43:04.717Z,3.30
2022-08-16T16:48:13.208Z,3.42
2022-08-16T16:58:40.603Z,4.00
2022-08-16T17:03:53.762Z,3.53
2022-08-16T17:08:59.405Z,2.85
2022-08-16T17:14:13.856Z,2.85
2022-08-16T17:19:32.681Z,2.87
2022-08-16T17:24:40.079Z,4.40
2022-08-16T17:29:54.329Z,12.90
2022-08-16T17:35:00.697Z,15.82
2022-08-16T17:40:09.524Z,7.13
2022-08-16T17:45:33.947Z,10.40
2022-08-16T17:50:39.539Z,6.50
2022-08-16T17:55:46.831Z,4.07
2022-08-16T18:00:56.119Z,3.45
2022-08-16T18:06:01.177Z,4.82
2022-08-16T18:11:06.448Z,5.47
2022-08-16T18:16:17.151Z,3.47
2022-08-16T18:21:34.487Z,3.35
2022-08-16T18:26:40.222Z,3.10
2022-08-16T18:31:50.914Z,3.08
2022-08-16T18:36:56.091Z,3.97
2022-08-16T18:42:01.298Z,3.90
2022-08-16T18:47:09.450Z,3.92
2022-08-16T18:52:24.855Z,4.53
2022-08-16T18:57:30.644Z,4.32
2022-08-16T19:02:58.243Z,3.75
2022-08-16T19:08:04.472Z,5.53
2022-08-16T19:13:11.861Z,3.80
2022-08-16T19:18:19.963Z,4.75
2022-08-16T19:23:27.457Z,4.87
2022-08-16T19:28:50.708Z,3.78
2022-08-16T19:34:02.263Z,3.53
2022-08-16T19:39:09.500Z,3.55
2022-08-16T19:44:15.375Z,3.28
2022-08-16T19:49:23.154Z,3.40
2022-08-16T19:54:28.271Z,3.50
2022-08-16T19:59:42.643Z,3.45
2022-08-16T20:04:50.876Z,3.13
2022-08-16T20:09:57.248Z,3.25
2022-08-16T20:15:05.501Z,3.20
2022-08-16T20:20:16.100Z,3.35
2022-08-16T20:25:28.160Z,3.65
2022-08-16T20:30:33.683Z,2.95
2022-08-16T20:47:18.370Z,8.23
2022-08-16T20:52:25.210Z,5.95
2022-08-16T20:57:30.879Z,12.13
2022-08-16T21:02:39.480Z,3.47
2022-08-16T21:07:44.758Z,4.25
2022-08-16T21:12:54.701Z,3.40
2022-08-16T21:18:05.547Z,3.25
2022-08-16T21:23:24.018Z,3.03
2022-08-16T21:28:36.843Z,2.80
2022-08-16T21:33:55.324Z,3.20
2022-08-16T21:39:01.377Z,3.30
2022-08-16T21:44:07.183Z,3.53
2022-08-16T21:49:15.143Z,2.42
2022-08-16T21:54:20.744Z,3.63
2022-08-16T21:59:27.970Z,2.90
2022-08-16T22:04:38.921Z,3.15
2022-08-16T22:09:44.990Z,2.72
2022-08-16T22:14:50.792Z,2.90
2022-08-16T22:20:01.152Z,2.58
2022-08-16T22:25:07.569Z,2.97
2022-08-16T22:30:15.486Z,2.60
2022-08-16T22:35:24.216Z,2.83
2022-08-16T22:45:51.617Z,2.80
2022-08-16T22:51:05.979Z,3.70
2022-08-16T22:56:11.181Z,2.53
2022-08-16T23:01:17.125Z,2.97
2022-08-16T23:06:26.003Z,2.88
2022-08-16T23:11:31.315Z,2.63
2022-08-16T23:16:37.125Z,2.78
2022-08-16T23:21:47.186Z,3.08
2022-08-16T23:26:54.194Z,2.60
2022-08-16T23:32:01.158Z,3.05
2022-08-16T23:37:12.018Z,3.10
2022-08-16T23:42:52.282Z,2.78
2022-08-16T23:47:43.930Z,2.53
2022-08-16T23:53:05.026Z,2.70
2022-08-16T23:58:12.099Z,2.53
